Time;durP1;ratioP1;P1;durP2;ratioP2;P2;SDS_P1;SDS_P2;PMS_P1;PMS_P2;Temp;Humidity;BMP_temperature;BMP_pressure;BME280_temperature;BME280_humidity;BME280_pressure;Samples;Min_cycle;Max_cycle;Signal;HPM_P1;HPM_P2
2024/04/03 00:03:39;;;;;;;2.47;0.73;;;;;;;;;;10077477;28;20048;-67
2024/04/03 00:08:31;;;;;;;0.98;0.85;;;;;;;;;;10084260;28;20048;-67
2024/04/03 00:13:23;;;;;;;1.58;0.90;;;;;;;;;;10076778;28;20471;-67
2024/04/03 00:18:16;;;;;;;0.60;0.60;;;;;;;;;;10087311;28;20424;-67
2024/04/03 00:23:08;;;;;;;1.00;0.80;;;;;;;;;;10087874;28;20048;-66
2024/04/03 00:28:01;;;;;;;2.13;0.88;;;;;;;;;;10087945;28;20412;-67
2024/04/03 00:32:53;;;;;;;2.35;0.80;;;;;;;;;;10087077;28;20563;-67
2024/04/03 00:37:45;;;;;;;1.25;0.80;;;;;;;;;;10087081;28;20036;-67
2024/04/03 00:42:38;;;;;;;1.95;0.82;;;;;;;;;;10077896;28;20128;-66
2024/04/03 00:47:31;;;;;;;3.78;0.80;;;;;;;;;;10069334;28;20065;-67
2024/04/03 00:52:23;;;;;;;2.28;1.00;;;;;;;;;;10100729;28;20053;-68
2024/04/03 00:57:16;;;;;;;0.82;0.80;;;;;;;;;;10111700;28;20049;-67
2024/04/03 01:02:13;;;;;;;0.60;0.60;;;;;;;;;;10109841;28;20124;-67
2024/04/03 01:07:07;;;;;;;1.17;0.70;;;;;;;;;;10103798;28;20041;-67
2024/04/03 01:12:00;;;;;;;1.98;0.80;;;;;;;;;;10105819;28;20123;-67
2024/04/03 01:16:53;;;;;;;1.40;0.85;;;;;;;;;;10105641;28;20397;-67
2024/04/03 01:21:46;;;;;;;1.25;1.10;;;;;;;;;;10102520;28;20044;-66
2024/04/03 01:26:38;;;;;;;1.85;0.73;;;;;;;;;;10117354;28;20419;-67
2024/04/03 01:31:31;;;;;;;1.73;0.80;;;;;;;;;;10108606;28;20059;-67
2024/04/03 01:36:23;;;;;;;0.95;0.70;;;;;;;;;;10114018;28;20102;-67
2024/04/03 01:41:16;;;;;;;4.68;0.98;;;;;;;;;;10081727;28;20045;-66
2024/04/03 01:46:09;;;;;;;2.55;0.85;;;;;;;;;;10116332;28;20420;-67
2024/04/03 01:51:01;;;;;;;3.30;1.58;;;;;;;;;;10084615;28;20049;-67
2024/04/03 01:56:12;;;;;;;1.10;0.95;;;;;;;;;;10052479;28;20489;-66
2024/04/03 02:01:05;;;;;;;1.27;1.00;;;;;;;;;;10075694;28;20051;-67
2024/04/03 02:05:58;;;;;;;1.27;1.00;;;;;;;;;;10082315;28;20072;-67
2024/04/03 02:10:50;;;;;;;1.55;0.93;;;;;;;;;;10084258;28;20512;-67
2024/04/03 02:16:11;;;;;;;1.00;0.75;;;;;;;;;;10071549;28;20041;-67
2024/04/03 02:21:05;;;;;;;2.85;0.90;;;;;;;;;;10069980;28;20234;-67
2024/04/03 02:25:57;;;;;;;1.95;1.45;;;;;;;;;;10080263;28;20048;-67
2024/04/03 02:30:59;;;;;;;1.55;0.82;;;;;;;;;;10071783;28;20050;-67
2024/04/03 02:35:52;;;;;;;2.92;0.77;;;;;;;;;;10079042;28;20049;-67
2024/04/03 02:40:43;;;;;;;1.55;0.80;;;;;;;;;;10075211;28;20386;-67
2024/04/03 02:45:35;;;;;;;1.52;1.10;;;;;;;;;;10082200;28;20535;-67
2024/04/03 02:50:27;;;;;;;1.75;0.80;;;;;;;;;;10081053;28;20065;-67
2024/04/03 02:55:20;;;;;;;2.85;0.73;;;;;;;;;;10090359;28;20049;-67
2024/04/03 03:00:16;;;;;;;1.67;0.90;;;;;;;;;;10095997;28;20057;-67
2024/04/03 03:05:11;;;;;;;1.60;1.10;;;;;;;;;;10095087;28;20129;-67
2024/04/03 03:10:05;;;;;;;4.80;0.80;;;;;;;;;;10091706;28;20465;-66
2024/04/03 03:14:58;;;;;;;2.70;1.00;;;;;;;;;;10098692;28;20050;-67
2024/04/03 03:19:51;;;;;;;2.97;1.00;;;;;;;;;;10095746;28;20049;-67
2024/04/03 03:24:43;;;;;;;1.90;0.98;;;;;;;;;;10096689;28;20508;-67
2024/04/03 03:29:36;;;;;;;2.35;0.93;;;;;;;;;;10094150;28;20045;-67
2024/04/03 03:34:28;;;;;;;3.58;1.10;;;;;;;;;;10090756;28;20049;-66
2024/04/03 03:39:21;;;;;;;2.08;0.90;;;;;;;;;;10089213;28;20553;-66
2024/04/03 03:44:14;;;;;;;2.17;0.90;;;;;;;;;;10090223;28;20049;-67
2024/04/03 03:54:18;;;;;;;2.45;1.10;;;;;;;;;;10114111;28;20120;-66
2024/04/03 03:59:12;;;;;;;0.75;0.75;;;;;;;;;;10113119;28;20076;-67
2024/04/03 04:04:05;;;;;;;3.90;1.00;;;;;;;;;;10111024;28;20055;-67
2024/04/03 04:08:58;;;;;;;2.22;1.20;;;;;;;;;;10115257;28;20401;-67
2024/04/03 04:13:51;;;;;;;2.47;0.90;;;;;;;;;;10098487;28;20045;-67
2024/04/03 04:18:45;;;;;;;2.47;0.93;;;;;;;;;;10117193;28;20123;-67
2024/04/03 04:23:37;;;;;;;2.53;1.15;;;;;;;;;;10115606;28;20041;-67
2024/04/03 04:28:30;;;;;;;3.13;1.10;;;;;;;;;;10110063;28;20127;-67
2024/04/03 04:33:23;;;;;;;3.60;3.03;;;;;;;;;;10107041;28;20048;-67
2024/04/03 04:38:15;;;;;;;5.47;2.72;;;;;;;;;;10118734;28;20496;-67
2024/04/03 04:43:08;;;;;;;5.80;2.47;;;;;;;;;;10105420;28;20460;-67
2024/04/03 04:48:01;;;;;;;4.38;1.90;;;;;;;;;;10114513;28;20132;-67
2024/04/03 04:52:53;;;;;;;4.50;3.97;;;;;;;;;;10100399;28;20459;-67
2024/04/03 04:57:46;;;;;;;7.60;2.67;;;;;;;;;;10118748;28;20416;-67
2024/04/03 05:02:39;;;;;;;1.52;1.42;;;;;;;;;;10091913;28;20049;-67
2024/04/03 05:07:31;;;;;;;6.45;2.85;;;;;;;;;;10107558;28;20037;-67
2024/04/03 05:12:23;;;;;;;2.30;1.60;;;;;;;;;;10120920;28;20055;-67
2024/04/03 05:17:16;;;;;;;3.38;1.70;;;;;;;;;;10126950;28;20459;-66
2024/04/03 05:22:12;;;;;;;3.78;2.60;;;;;;;;;;10134130;28;20197;-67
2024/04/03 05:27:05;;;;;;;10.35;2.88;;;;;;;;;;10124217;28;20107;-67
2024/04/03 05:31:57;;;;;;;4.78;2.40;;;;;;;;;;10133898;28;20054;-66
2024/04/03 05:36:58;;;;;;;5.90;2.17;;;;;;;;;;10133747;28;20139;-66
2024/04/03 05:41:51;;;;;;;10.40;2.55;;;;;;;;;;10129312;28;20056;-67
2024/04/03 05:46:44;;;;;;;5.75;2.63;;;;;;;;;;10129651;28;20102;-67
2024/04/03 05:51:37;;;;;;;6.90;3.25;;;;;;;;;;10129646;28;20125;-67
2024/04/03 05:56:29;;;;;;;5.05;1.85;;;;;;;;;;10120991;28;20443;-72
2024/04/03 06:01:21;;;;;;;6.50;3.75;;;;;;;;;;10127886;28;20044;-67
2024/04/03 06:06:14;;;;;;;6.03;2.35;;;;;;;;;;10126515;28;20207;-66
2024/04/03 06:11:08;;;;;;;7.57;2.92;;;;;;;;;;10130855;28;20066;-67
2024/04/03 06:16:03;;;;;;;5.38;1.80;;;;;;;;;;10131593;28;20454;-67
2024/04/03 06:20:56;;;;;;;4.47;1.42;;;;;;;;;;10131820;28;20044;-67
2024/04/03 06:25:49;;;;;;;3.50;1.55;;;;;;;;;;10131469;28;20041;-68
2024/04/03 06:30:42;;;;;;;4.55;1.92;;;;;;;;;;10130356;28;20067;-67
2024/04/03 06:35:34;;;;;;;9.48;2.50;;;;;;;;;;10130877;28;20048;-66
2024/04/03 06:40:27;;;;;;;4.65;3.13;;;;;;;;;;10126534;28;20405;-67
2024/04/03 06:45:19;;;;;;;2.42;1.30;;;;;;;;;;10112591;28;20558;-67
2024/04/03 06:50:12;;;;;;;5.25;1.10;;;;;;;;;;10116022;28;20053;-67
2024/04/03 06:55:05;;;;;;;0.70;0.70;;;;;;;;;;10109178;28;20045;-67
2024/04/03 06:59:58;;;;;;;3.00;1.20;;;;;;;;;;10101204;28;21180;-67
2024/04/03 07:04:49;;;;;;;6.47;1.67;;;;;;;;;;10104282;28;20412;-67
2024/04/03 07:09:42;;;;;;;5.22;0.73;;;;;;;;;;10119997;28;20059;-66
2024/04/03 07:14:35;;;;;;;1.45;0.73;;;;;;;;;;10104813;28;20045;-67
2024/04/03 07:19:47;;;;;;;4.35;1.55;;;;;;;;;;10103909;28;20075;-67
2024/04/03 07:24:39;;;;;;;2.20;1.13;;;;;;;;;;10104502;28;20394;-67
2024/04/03 07:29:32;;;;;;;2.83;1.33;;;;;;;;;;10102139;28;20059;-67
2024/04/03 07:34:25;;;;;;;3.30;2.08;;;;;;;;;;10099615;28;20107;-66
2024/04/03 07:39:18;;;;;;;3.53;1.20;;;;;;;;;;10097623;28;20041;-66
2024/04/03 07:44:16;;;;;;;2.67;1.35;;;;;;;;;;10092895;28;20080;-66
2024/04/03 07:49:09;;;;;;;3.95;1.67;;;;;;;;;;10097834;28;20049;-65
2024/04/03 07:54:01;;;;;;;9.15;3.03;;;;;;;;;;10112812;28;20528;-66
2024/04/03 07:58:54;;;;;;;12.52;2.78;;;;;;;;;;10115978;28;20052;-66
2024/04/03 08:03:47;;;;;;;7.85;4.22;;;;;;;;;;10100762;28;20061;-67
2024/04/03 08:08:40;;;;;;;18.48;12.98;;;;;;;;;;10101474;28;20053;-67
2024/04/03 08:13:33;;;;;;;5.55;3.13;;;;;;;;;;10108709;28;20072;-67
2024/04/03 08:18:25;;;;;;;5.88;1.20;;;;;;;;;;10111506;28;20068;-67
2024/04/03 08:23:17;;;;;;;8.25;1.63;;;;;;;;;;10103313;28;20045;-67
2024/04/03 08:28:10;;;;;;;4.03;1.58;;;;;;;;;;10104736;28;20049;-66
2024/04/03 08:33:09;;;;;;;2.38;1.38;;;;;;;;;;10097776;28;20060;-67
2024/04/03 08:38:02;;;;;;;7.75;3.80;;;;;;;;;;10094051;28;20087;-67
2024/04/03 08:42:55;;;;;;;4.85;2.78;;;;;;;;;;10110975;28;20459;-66
2024/04/03 08:47:48;;;;;;;3.33;1.73;;;;;;;;;;10101650;28;20044;-66
2024/04/03 08:52:41;;;;;;;5.65;1.25;;;;;;;;;;10084874;28;20045;-67
2024/04/03 08:57:33;;;;;;;4.32;1.50;;;;;;;;;;10111311;28;20049;-66
2024/04/03 09:02:26;;;;;;;4.57;1.17;;;;;;;;;;10107633;28;20063;-66
2024/04/03 09:07:19;;;;;;;7.60;1.20;;;;;;;;;;10099283;28;20059;-66
2024/04/03 09:12:12;;;;;;;5.40;1.23;;;;;;;;;;10107403;28;20052;-66
2024/04/03 09:17:05;;;;;;;5.93;1.15;;;;;;;;;;10096272;28;20057;-67
2024/04/03 09:21:59;;;;;;;3.95;1.20;;;;;;;;;;10111980;28;20412;-67
2024/04/03 09:26:56;;;;;;;3.30;1.45;;;;;;;;;;10098925;28;20061;-67
2024/04/03 09:31:48;;;;;;;2.63;1.23;;;;;;;;;;10114728;28;20489;-67
2024/04/03 09:36:42;;;;;;;2.03;1.08;;;;;;;;;;10108989;28;20058;-67
2024/04/03 09:41:34;;;;;;;2.25;0.93;;;;;;;;;;10114156;28;20044;-67
2024/04/03 09:46:34;;;;;;;2.88;1.42;;;;;;;;;;10094838;28;20409;-67
2024/04/03 09:51:27;;;;;;;3.75;1.02;;;;;;;;;;10100378;28;20079;-67
2024/04/03 09:56:19;;;;;;;2.72;1.05;;;;;;;;;;10099411;28;20382;-67
2024/04/03 10:01:12;;;;;;;7.47;1.58;;;;;;;;;;10092238;28;20053;-67
2024/04/03 10:06:10;;;;;;;4.43;1.13;;;;;;;;;;10105944;28;20048;-68
2024/04/03 10:11:20;;;;;;;2.40;0.85;;;;;;;;;;10117827;28;20436;-68
2024/04/03 10:16:13;;;;;;;3.03;0.88;;;;;;;;;;10126176;28;20084;-68
2024/04/03 10:21:13;;;;;;;1.55;0.80;;;;;;;;;;10132178;28;20044;-67
2024/04/03 10:26:06;;;;;;;1.63;0.73;;;;;;;;;;10131740;28;20040;-68
2024/04/03 10:30:58;;;;;;;1.60;0.50;;;;;;;;;;10131471;28;20397;-68
2024/04/03 10:35:50;;;;;;;3.25;0.85;;;;;;;;;;10131244;28;20404;-67
2024/04/03 10:40:47;;;;;;;3.88;0.80;;;;;;;;;;10131911;28;20136;-68
2024/04/03 10:45:39;;;;;;;2.97;1.67;;;;;;;;;;10131794;28;20443;-67
2024/04/03 10:50:32;;;;;;;1.23;0.60;;;;;;;;;;10100572;28;20511;-67
2024/04/03 10:55:29;;;;;;;1.73;0.70;;;;;;;;;;10107419;28;20074;-68
2024/04/03 11:00:22;;;;;;;3.38;1.90;;;;;;;;;;10107625;28;20057;-67
2024/04/03 11:05:15;;;;;;;0.80;0.47;;;;;;;;;;10090821;28;20508;-68
2024/04/03 11:10:11;;;;;;;1.33;0.60;;;;;;;;;;10106879;28;20045;-68
2024/04/03 11:15:09;;;;;;;2.75;0.70;;;;;;;;;;10090075;28;20037;-68
2024/04/03 11:20:02;;;;;;;6.72;1.50;;;;;;;;;;10090324;28;20080;-67
2024/04/03 11:24:55;;;;;;;1.60;0.90;;;;;;;;;;10065873;28;20513;-67
2024/04/03 11:29:47;;;;;;;2.45;1.65;;;;;;;;;;10089731;28;20555;-68
2024/04/03 11:34:40;;;;;;;6.47;1.83;;;;;;;;;;10089802;28;20059;-68
2024/04/03 11:39:32;;;;;;;5.57;1.15;;;;;;;;;;10089866;28;20053;-68
2024/04/03 11:44:24;;;;;;;3.92;1.20;;;;;;;;;;10102578;28;20110;-67
2024/04/03 11:49:17;;;;;;;2.22;1.13;;;;;;;;;;10104635;28;20656;-67
2024/04/03 11:54:10;;;;;;;4.03;1.30;;;;;;;;;;10121990;28;20048;-67
2024/04/03 11:59:03;;;;;;;4.38;1.20;;;;;;;;;;10102296;28;20079;-66
2024/04/03 12:03:55;;;;;;;3.88;1.20;;;;;;;;;;10128644;28;20057;-66
2024/04/03 12:08:48;;;;;;;2.97;1.48;;;;;;;;;;10101530;28;20488;-66
2024/04/03 12:13:41;;;;;;;4.97;1.42;;;;;;;;;;10116566;28;20058;-67
2024/04/03 12:18:50;;;;;;;5.82;1.38;;;;;;;;;;10133703;28;20462;-66
2024/04/03 12:23:42;;;;;;;;;;;;;;;;;;10128074;28;20185;-67
2024/04/03 12:28:36;;;;;;;1.15;0.90;;;;;;;;;;10113606;28;20001;-66
2024/04/03 12:33:28;;;;;;;8.30;5.28;;;;;;;;;;10111516;28;20105;-65
2024/04/03 12:38:21;;;;;;;4.50;1.20;;;;;;;;;;10127725;28;20131;-66
2024/04/03 12:43:14;;;;;;;3.40;1.73;;;;;;;;;;10127108;28;20051;-67
2024/04/03 12:48:07;;;;;;;3.17;1.30;;;;;;;;;;10124393;28;20128;-65
2024/04/03 12:53:01;;;;;;;2.53;1.13;;;;;;;;;;10117991;28;20055;-66
2024/04/03 12:57:53;;;;;;;2.83;1.23;;;;;;;;;;10113487;28;20404;-66
2024/04/03 13:02:45;;;;;;;4.63;1.00;;;;;;;;;;10126517;28;20446;-66
2024/04/03 13:07:38;;;;;;;5.30;1.50;;;;;;;;;;10113739;28;20051;-66
2024/04/03 13:12:31;;;;;;;6.03;1.42;;;;;;;;;;10102892;28;20109;-66
2024/04/03 13:17:24;;;;;;;4.13;1.48;;;;;;;;;;10126675;28;20052;-66
2024/04/03 13:22:19;;;;;;;3.38;1.85;;;;;;;;;;10123177;28;20124;-66
2024/04/03 13:27:12;;;;;;;3.58;2.08;;;;;;;;;;10111553;28;20048;-66
2024/04/03 13:32:05;;;;;;;3.35;1.60;;;;;;;;;;10113322;28;20109;-66
2024/04/03 13:36:58;;;;;;;4.55;1.23;;;;;;;;;;10126642;28;20105;-66
2024/04/03 13:41:51;;;;;;;4.18;2.05;;;;;;;;;;10133968;28;20048;-66
2024/04/03 13:46:43;;;;;;;8.88;1.33;;;;;;;;;;10133951;28;20416;-66
2024/04/03 13:51:36;;;;;;;6.32;3.53;;;;;;;;;;10133260;28;20144;-66
2024/04/03 13:56:28;;;;;;;4.20;1.73;;;;;;;;;;10121329;28;20063;-66
2024/04/03 14:01:21;;;;;;;11.15;2.47;;;;;;;;;;10119965;28;20060;-66
2024/04/03 14:06:13;;;;;;;7.10;1.55;;;;;;;;;;10133152;28;20048;-67
2024/04/03 14:11:06;;;;;;;4.43;1.48;;;;;;;;;;10117060;28;20040;-66
2024/04/03 14:15:58;;;;;;;4.35;1.35;;;;;;;;;;10124338;28;20040;-66
2024/04/03 14:20:49;;;;;;;9.63;1.88;;;;;;;;;;10132296;28;20049;-66
2024/04/03 14:25:44;;;;;;;5.13;1.83;;;;;;;;;;10118544;28;20072;-67
2024/04/03 14:30:38;;;;;;;3.38;1.83;;;;;;;;;;10130697;28;20048;-66
2024/04/03 14:35:31;;;;;;;4.75;1.88;;;;;;;;;;10113356;28;20052;-66
2024/04/03 14:40:26;;;;;;;7.72;1.33;;;;;;;;;;10118267;28;20629;-66
2024/04/03 14:45:18;;;;;;;4.93;1.50;;;;;;;;;;10127500;28;20053;-66
2024/04/03 14:50:12;;;;;;;4.63;2.03;;;;;;;;;;10130046;28;20476;-66
2024/04/03 14:55:06;;;;;;;1.83;0.90;;;;;;;;;;10124145;28;20389;-66
2024/04/03 14:59:59;;;;;;;4.18;1.20;;;;;;;;;;10130877;28;20106;-66
2024/04/03 15:04:52;;;;;;;2.25;1.38;;;;;;;;;;10130502;28;20511;-66
2024/04/03 15:09:44;;;;;;;3.28;1.35;;;;;;;;;;10130482;28;20087;-66
2024/04/03 15:14:38;;;;;;;7.20;2.00;;;;;;;;;;10119056;28;20526;-66
2024/04/03 15:19:31;;;;;;;2.53;1.45;;;;;;;;;;10130010;28;20143;-66
2024/04/03 15:24:23;;;;;;;3.25;1.10;;;;;;;;;;10116156;28;20052;-66
2024/04/03 15:29:17;;;;;;;1.58;1.35;;;;;;;;;;10129920;28;20447;-66
2024/04/03 15:34:09;;;;;;;5.47;1.20;;;;;;;;;;10129797;28;20058;-66
2024/04/03 15:39:02;;;;;;;3.42;1.65;;;;;;;;;;10129354;28;20074;-65
2024/04/03 15:43:54;;;;;;;2.72;1.40;;;;;;;;;;10128896;28;20566;-66
2024/04/03 15:48:47;;;;;;;3.85;1.13;;;;;;;;;;10128484;28;20056;-66
2024/04/03 15:53:40;;;;;;;4.28;2.00;;;;;;;;;;10121755;28;20360;-66
2024/04/03 15:58:33;;;;;;;3.22;1.52;;;;;;;;;;10115315;28;20099;-66
2024/04/03 16:03:24;;;;;;;4.05;1.77;;;;;;;;;;10113827;28;20178;-66
2024/04/03 16:08:18;;;;;;;3.90;2.03;;;;;;;;;;10128581;28;20056;-65
2024/04/03 16:13:18;;;;;;;3.65;2.38;;;;;;;;;;10104724;28;20083;-66
2024/04/03 16:18:12;;;;;;;3.55;1.33;;;;;;;;;;10144468;28;20504;-65
2024/04/03 16:23:05;;;;;;;5.07;1.33;;;;;;;;;;10117624;28;20416;-65
2024/04/03 16:27:58;;;;;;;8.32;1.73;;;;;;;;;;10097528;28;20090;-65
2024/04/03 16:32:50;;;;;;;7.22;1.60;;;;;;;;;;10112955;28;20539;-66
2024/04/03 16:37:43;;;;;;;5.47;1.55;;;;;;;;;;10128130;28;20057;-66
2024/04/03 16:42:37;;;;;;;6.28;3.55;;;;;;;;;;10121452;28;20143;-66
2024/04/03 16:47:31;;;;;;;5.72;1.95;;;;;;;;;;10126940;28;20492;-66
2024/04/03 16:52:24;;;;;;;2.33;1.33;;;;;;;;;;10077225;28;20599;-66
2024/04/03 16:57:17;;;;;;;8.55;1.80;;;;;;;;;;10077538;28;20056;-66
2024/04/03 17:02:10;;;;;;;3.28;1.77;;;;;;;;;;10057356;28;20520;-65
2024/04/03 17:07:03;;;;;;;4.18;2.28;;;;;;;;;;10078980;28;20410;-66
2024/04/03 17:11:56;;;;;;;6.47;1.92;;;;;;;;;;10079852;28;20552;-66
2024/04/03 17:16:48;;;;;;;3.17;2.10;;;;;;;;;;10093946;28;20040;-66
2024/04/03 17:21:43;;;;;;;4.07;1.40;;;;;;;;;;10091177;28;20053;-66
2024/04/03 17:26:53;;;;;;;4.20;2.47;;;;;;;;;;10088671;28;20060;-66
2024/04/03 17:31:45;;;;;;;7.40;2.42;;;;;;;;;;10073922;28;20049;-66
2024/04/03 17:36:37;;;;;;;8.18;3.25;;;;;;;;;;10084467;28;20043;-66
2024/04/03 17:41:30;;;;;;;2.10;1.40;;;;;;;;;;10084694;28;20061;-67
2024/04/03 17:46:23;;;;;;;2.42;1.65;;;;;;;;;;10096198;28;20442;-66
2024/04/03 17:51:16;;;;;;;7.63;3.97;;;;;;;;;;10104686;28;20136;-66
2024/04/03 17:56:09;;;;;;;21.77;8.38;;;;;;;;;;10106072;28;20045;-67
2024/04/03 18:01:01;;;;;;;3.85;1.90;;;;;;;;;;10109937;28;20044;-66
2024/04/03 18:05:54;;;;;;;9.80;5.43;;;;;;;;;;10109443;28;20063;-66
2024/04/03 18:10:47;;;;;;;17.02;12.10;;;;;;;;;;10107029;28;20131;-66
2024/04/03 18:15:40;;;;;;;9.30;7.15;;;;;;;;;;10106413;28;20044;-67
2024/04/03 18:20:32;;;;;;;4.72;4.00;;;;;;;;;;10108771;28;20453;-67
2024/04/03 18:25:26;;;;;;;9.45;4.05;;;;;;;;;;10108713;28;20095;-66
2024/04/03 18:30:20;;;;;;;7.47;3.95;;;;;;;;;;10109271;28;20061;-67
2024/04/03 18:35:16;;;;;;;7.97;3.53;;;;;;;;;;10107570;28;20096;-67
2024/04/03 18:40:09;;;;;;;2.55;2.05;;;;;;;;;;10104889;28;20068;-67
2024/04/03 18:45:02;;;;;;;4.82;1.92;;;;;;;;;;10106733;28;20505;-67
2024/04/03 18:49:55;;;;;;;6.95;2.75;;;;;;;;;;10131886;28;20131;-67
2024/04/03 18:54:47;;;;;;;8.50;4.70;;;;;;;;;;10132297;28;20037;-67
2024/04/03 18:59:41;;;;;;;24.50;21.83;;;;;;;;;;10113148;28;20055;-67
2024/04/03 19:04:34;;;;;;;4.80;2.80;;;;;;;;;;10118759;28;20448;-69
2024/04/03 19:09:27;;;;;;;6.60;2.90;;;;;;;;;;10127639;28;20127;-68
2024/04/03 19:14:20;;;;;;;6.35;2.83;;;;;;;;;;10118899;28;20048;-69
2024/04/03 19:19:13;;;;;;;5.68;2.33;;;;;;;;;;10124033;28;20067;-68
2024/04/03 19:24:06;;;;;;;5.15;2.67;;;;;;;;;;10124730;28;20048;-69
2024/04/03 19:28:58;;;;;;;9.05;7.75;;;;;;;;;;10124522;28;20446;-69
2024/04/03 19:33:53;;;;;;;10.02;5.53;;;;;;;;;;10127537;28;20048;-68
2024/04/03 19:38:45;;;;;;;17.75;11.07;;;;;;;;;;10121667;28;20044;-68
2024/04/03 19:43:37;;;;;;;18.67;13.00;;;;;;;;;;10121293;28;20040;-68
2024/04/03 19:48:30;;;;;;;14.15;7.68;;;;;;;;;;10119260;28;20507;-68
2024/04/03 19:53:26;;;;;;;4.68;1.75;;;;;;;;;;10127926;28;20048;-68
2024/04/03 19:58:20;;;;;;;4.97;2.50;;;;;;;;;;10119848;28;20089;-67
2024/04/03 20:03:12;;;;;;;4.70;1.70;;;;;;;;;;10122609;28;20094;-67
2024/04/03 20:08:08;;;;;;;5.97;2.75;;;;;;;;;;10119052;28;20112;-67
2024/04/03 20:13:02;;;;;;;5.70;3.22;;;;;;;;;;10126054;28;20404;-67
2024/04/03 20:17:54;;;;;;;3.80;1.17;;;;;;;;;;10123003;28;20048;-67
2024/04/03 20:22:50;;;;;;;2.70;1.50;;;;;;;;;;10125589;28;20053;-68
2024/04/03 20:27:42;;;;;;;1.92;1.25;;;;;;;;;;10121646;28;20064;-68
2024/04/03 20:32:35;;;;;;;3.47;1.58;;;;;;;;;;10124904;28;20040;-67
2024/04/03 20:37:28;;;;;;;3.08;1.35;;;;;;;;;;10124165;28;20408;-68
2024/04/03 20:42:23;;;;;;;5.53;1.60;;;;;;;;;;10114074;28;20071;-68
2024/04/03 20:47:17;;;;;;;1.92;1.20;;;;;;;;;;10106519;28;20057;-67
2024/04/03 20:52:09;;;;;;;3.95;1.45;;;;;;;;;;10117542;28;20048;-67
2024/04/03 20:57:04;;;;;;;5.65;1.40;;;;;;;;;;10110389;28;20051;-66
2024/04/03 21:01:56;;;;;;;2.03;1.20;;;;;;;;;;10102375;28;20033;-67
2024/04/03 21:06:48;;;;;;;5.38;1.58;;;;;;;;;;10110274;28;20072;-67
2024/04/03 21:11:41;;;;;;;7.38;2.70;;;;;;;;;;10107194;28;20040;-68
2024/04/03 21:16:34;;;;;;;3.33;2.20;;;;;;;;;;10092724;28;20523;-68
2024/04/03 21:21:28;;;;;;;3.10;1.40;;;;;;;;;;10107844;28;20139;-67
2024/04/03 21:26:20;;;;;;;2.42;1.33;;;;;;;;;;10106012;28;20045;-67
2024/04/03 21:31:14;;;;;;;2.83;1.45;;;;;;;;;;10092313;28;20048;-67
2024/04/03 21:36:07;;;;;;;6.18;1.83;;;;;;;;;;10103704;28;20110;-67
2024/04/03 21:41:00;;;;;;;3.50;1.80;;;;;;;;;;10113293;28;20048;-67
2024/04/03 21:45:52;;;;;;;3.22;1.63;;;;;;;;;;10109138;28;20053;-67
2024/04/03 21:50:44;;;;;;;2.35;1.65;;;;;;;;;;10113147;28;20049;-67
2024/04/03 21:55:38;;;;;;;5.32;1.85;;;;;;;;;;10109965;28;20132;-69
2024/04/03 22:00:30;;;;;;;5.00;2.03;;;;;;;;;;10110034;28;20053;-68
2024/04/03 22:05:23;;;;;;;4.35;1.83;;;;;;;;;;10125971;28;20135;-68
2024/04/03 22:10:15;;;;;;;5.78;2.45;;;;;;;;;;10117465;28;20516;-67
2024/04/03 22:15:09;;;;;;;4.70;2.50;;;;;;;;;;10117965;28;20125;-68
2024/04/03 22:20:01;;;;;;;5.97;2.85;;;;;;;;;;10099917;28;20057;-67
2024/04/03 22:24:55;;;;;;;4.70;3.50;;;;;;;;;;10113037;28;20044;-67
2024/04/03 22:29:48;;;;;;;6.78;3.63;;;;;;;;;;10117235;28;20049;-67
2024/04/03 22:34:41;;;;;;;8.63;2.90;;;;;;;;;;10113601;28;20076;-67
2024/04/03 22:39:34;;;;;;;10.38;3.28;;;;;;;;;;10101114;28;20053;-67
2024/04/03 22:44:27;;;;;;;6.72;3.22;;;;;;;;;;10117946;28;20094;-66
2024/04/03 22:49:20;;;;;;;5.80;3.03;;;;;;;;;;10112839;28;20055;-66
2024/04/03 22:54:12;;;;;;;5.30;3.28;;;;;;;;;;10115607;28;20057;-67
2024/04/03 22:59:04;;;;;;;4.43;2.50;;;;;;;;;;10113204;28;20044;-67
2024/04/03 23:03:57;;;;;;;5.57;2.65;;;;;;;;;;10116130;28;20514;-68
2024/04/03 23:08:49;;;;;;;4.43;2.35;;;;;;;;;;10096817;28;20033;-66
2024/04/03 23:13:42;;;;;;;5.55;2.40;;;;;;;;;;10117914;28;20049;-67
2024/04/03 23:18:34;;;;;;;7.28;2.30;;;;;;;;;;10113944;28;20293;-67
2024/04/03 23:23:27;;;;;;;9.30;2.70;;;;;;;;;;10112905;28;20059;-66
2024/04/03 23:28:21;;;;;;;4.50;2.40;;;;;;;;;;10130531;28;20127;-68
2024/04/03 23:33:13;;;;;;;7.47;2.67;;;;;;;;;;10098765;28;20053;-67
2024/04/03 23:38:06;;;;;;;6.78;2.97;;;;;;;;;;10107853;28;20055;-67
2024/04/03 23:42:59;;;;;;;5.45;2.63;;;;;;;;;;10128727;28;20048;-68
2024/04/03 23:47:52;;;;;;;5.07;2.53;;;;;;;;;;10145874;28;20059;-67
2024/04/03 23:52:44;;;;;;;8.55;2.53;;;;;;;;;;10127534;28;20044;-68
2024/04/03 23:57:37;;;;;;;8.23;4.00;;;;;;;;;;10128901;28;20048;-67
